createdAt,value
2022-10-04T00:01:31.038Z,72.75
2022-10-04T00:06:32.721Z,72.84
2022-10-04T00:11:37.290Z,72.75
2022-10-04T00:16:40.844Z,73.14
2022-10-04T00:21:52.288Z,73.10
2022-10-04T00:27:25.310Z,72.97
2022-10-04T00:32:28.272Z,73.34
2022-10-04T00:38:12.857Z,73.32
2022-10-04T00:43:26.166Z,73.55
2022-10-04T00:48:31.597Z,73.42
2022-10-04T00:53:39.508Z,73.24
2022-10-04T00:59:08.724Z,73.32
2022-10-04T01:04:26.756Z,73.55
2022-10-04T01:09:30.508Z,73.33
2022-10-04T01:14:53.774Z,73.44
2022-10-04T01:19:56.170Z,73.23
2022-10-04T01:24:57.845Z,73.26
2022-10-04T01:30:01.082Z,73.08
2022-10-04T01:35:03.783Z,73.50
2022-10-04T01:40:09.069Z,73.43
2022-10-04T01:45:19.420Z,73.53
2022-10-04T01:50:30.090Z,73.47
2022-10-04T01:55:37.489Z,73.63
2022-10-04T02:00:46.348Z,73.51
2022-10-04T02:05:52.753Z,73.60
2022-10-04T02:10:55.932Z,73.50
2022-10-04T02:16:00.276Z,73.53
2022-10-04T02:21:06.010Z,73.62
2022-10-04T02:26:09.494Z,73.36
2022-10-04T02:31:30.257Z,73.55
2022-10-04T02:36:33.288Z,73.77
2022-10-04T02:42:01.630Z,73.91
2022-10-04T02:47:14.330Z,74.23
2022-10-04T02:52:42.250Z,74.20
2022-10-04T02:57:44.873Z,74.61
2022-10-04T03:03:11.309Z,74.34
2022-10-04T03:08:14.442Z,74.38
2022-10-04T03:13:18.540Z,74.54
2022-10-04T03:18:21.140Z,74.74
2022-10-04T03:23:22.869Z,74.65
2022-10-04T03:28:25.159Z,74.78
2022-10-04T03:33:27.596Z,74.97
2022-10-04T03:38:32.449Z,74.71
2022-10-04T03:43:40.666Z,74.74
2022-10-04T03:48:52.208Z,74.80
2022-10-04T03:53:59.805Z,74.70
2022-10-04T03:59:06.617Z,74.74
2022-10-04T04:04:17.708Z,74.76
2022-10-04T04:09:29.126Z,74.74
2022-10-04T04:14:30.890Z,75.08
2022-10-04T04:19:33.611Z,75.29
2022-10-04T04:24:36.468Z,75.41
2022-10-04T04:29:53.318Z,75.39
2022-10-04T04:35:08.598Z,75.43
2022-10-04T04:40:21.859Z,75.68
2022-10-04T04:45:26.676Z,75.75
2022-10-04T04:50:40.053Z,75.68
2022-10-04T04:56:03.712Z,75.87
2022-10-04T05:01:15.952Z,75.58
2022-10-04T05:06:29.127Z,75.92
2022-10-04T05:11:39.406Z,75.92
2022-10-04T05:16:51.200Z,75.92
2022-10-04T05:21:55.661Z,76.06
2022-10-04T05:27:04.280Z,76.09
2022-10-04T05:32:31.161Z,76.16
2022-10-04T05:37:35.876Z,76.44
2022-10-04T05:42:45.343Z,76.24
2022-10-04T05:47:51.410Z,76.10
2022-10-04T05:53:05.552Z,76.19
2022-10-04T05:58:25.514Z,76.51
2022-10-04T06:03:42.501Z,76.35
2022-10-04T06:08:59.542Z,76.48
2022-10-04T06:14:07.477Z,76.60
2022-10-04T06:19:44.588Z,76.86
2022-10-04T06:25:01.440Z,76.64
2022-10-04T06:30:16.099Z,76.87
2022-10-04T06:35:45.739Z,76.42
2022-10-04T06:41:00.202Z,76.38
2022-10-04T06:46:26.856Z,76.52
2022-10-04T06:52:22.793Z,76.60
2022-10-04T06:57:46.106Z,76.67
2022-10-04T07:03:10.660Z,76.56
2022-10-04T07:08:31.628Z,76.70
2022-10-04T07:13:45.611Z,76.74
2022-10-04T07:19:09.779Z,76.84
2022-10-04T07:24:18.765Z,76.84
2022-10-04T07:29:26.351Z,76.74
2022-10-04T07:34:31.510Z,76.32
2022-10-04T07:39:46.143Z,76.43
2022-10-04T07:45:25.846Z,76.53
2022-10-04T07:50:45.959Z,76.50
2022-10-04T07:56:00.358Z,76.26
2022-10-04T08:01:06.310Z,75.79
2022-10-04T08:06:35.723Z,75.73
2022-10-04T08:12:09.106Z,75.63
2022-10-04T08:17:26.445Z,75.21
2022-10-04T08:22:57.420Z,75.04
2022-10-04T08:28:27.021Z,75.08
2022-10-04T08:34:06.196Z,74.62
2022-10-04T08:39:39.833Z,74.68
2022-10-04T08:45:03.196Z,74.22
2022-10-04T08:50:44.594Z,74.15
2022-10-04T08:55:55.400Z,73.78
2022-10-04T09:01:26.343Z,73.40
2022-10-04T09:06:51.054Z,72.61
2022-10-04T09:12:28.149Z,72.89
2022-10-04T09:17:42.008Z,72.45
2022-10-04T09:23:31.920Z,71.65
2022-10-04T09:28:57.026Z,72.35
2022-10-04T09:34:23.507Z,72.38
2022-10-04T09:39:53.116Z,72.30
2022-10-04T09:45:27.616Z,71.40
2022-10-04T09:50:35.634Z,71.81
2022-10-04T09:56:00.588Z,72.02
2022-10-04T10:01:21.052Z,71.98
2022-10-04T10:06:50.117Z,71.79
2022-10-04T10:12:36.623Z,72.12
2022-10-04T10:17:59.912Z,71.89
2022-10-04T10:23:39.661Z,71.15
2022-10-04T10:29:23.397Z,71.30
2022-10-04T10:34:53.279Z,71.35
2022-10-04T10:40:13.846Z,71.59
2022-10-04T10:45:34.176Z,70.80
2022-10-04T10:51:03.626Z,69.61
2022-10-04T10:56:30.064Z,68.87
2022-10-04T11:02:01.594Z,69.65
2022-10-04T11:07:16.556Z,69.12
2022-10-04T11:13:05.669Z,66.64
2022-10-04T11:18:26.693Z,67.49
2022-10-04T11:23:46.486Z,67.59
2022-10-04T11:29:03.745Z,66.20
2022-10-04T11:34:24.833Z,66.59
2022-10-04T11:39:58.782Z,67.06
2022-10-04T11:45:00.593Z,67.66
2022-10-04T11:50:40.961Z,67.01
2022-10-04T11:56:04.412Z,67.71
2022-10-04T12:01:32.427Z,67.40
2022-10-04T12:06:47.873Z,68.03
2022-10-04T12:12:37.573Z,67.72
2022-10-04T12:18:11.700Z,67.22
2022-10-04T12:23:29.744Z,67.59
2022-10-04T12:29:04.140Z,67.29
2022-10-04T12:34:15.071Z,67.02
2022-10-04T12:39:34.699Z,67.41
2022-10-04T12:44:57.559Z,67.03
2022-10-04T12:50:08.846Z,66.68
2022-10-04T12:55:19.497Z,67.28
2022-10-04T13:00:23.872Z,67.63
2022-10-04T13:05:44.515Z,68.14
2022-10-04T13:11:07.633Z,67.78
2022-10-04T13:21:36.761Z,67.57
2022-10-04T13:26:56.138Z,67.81
2022-10-04T13:32:02.118Z,67.95
2022-10-04T13:37:22.643Z,68.29
2022-10-04T13:42:42.842Z,68.64
2022-10-04T13:48:12.751Z,67.72
2022-10-04T13:53:58.945Z,67.50
2022-10-04T13:59:10.234Z,67.01
2022-10-04T14:04:52.673Z,67.60
2022-10-04T14:10:12.470Z,67.54
2022-10-04T14:15:43.354Z,66.95
2022-10-04T14:21:06.787Z,66.67
2022-10-04T14:26:43.298Z,66.62
2022-10-04T14:32:14.922Z,66.75
2022-10-04T14:37:23.550Z,67.46
2022-10-04T14:42:49.228Z,67.25
2022-10-04T14:48:19.771Z,67.23
2022-10-04T14:53:32.789Z,67.28
2022-10-04T14:59:18.044Z,67.41
2022-10-04T15:04:36.764Z,66.36
2022-10-04T15:10:04.066Z,66.20
2022-10-04T15:15:13.094Z,66.08
2022-10-04T15:20:20.920Z,65.63
2022-10-04T15:25:41.432Z,65.21
2022-10-04T15:31:20.621Z,65.16
2022-10-04T15:36:38.174Z,65.40
2022-10-04T15:42:07.381Z,66.25
2022-10-04T15:47:21.981Z,65.66
2022-10-04T15:52:47.420Z,66.46
2022-10-04T15:58:04.542Z,67.06
2022-10-04T16:03:28.384Z,66.83
2022-10-04T16:08:30.083Z,67.04
2022-10-04T16:13:39.667Z,67.69
2022-10-04T16:19:15.955Z,67.75
2022-10-04T16:24:20.559Z,68.27
2022-10-04T16:30:25.429Z,68.75
2022-10-04T16:35:33.531Z,69.17
2022-10-04T16:40:57.405Z,69.46
2022-10-04T16:46:16.339Z,69.69
2022-10-04T16:51:27.222Z,70.31
2022-10-04T16:56:54.163Z,70.35
2022-10-04T17:02:18.903Z,70.66
2022-10-04T17:07:58.831Z,70.92
2022-10-04T17:13:23.438Z,71.36
2022-10-04T17:18:36.733Z,71.70
2022-10-04T17:24:11.115Z,72.48
2022-10-04T17:29:15.853Z,73.02
2022-10-04T17:34:23.651Z,73.08
2022-10-04T17:39:28.372Z,73.13
2022-10-04T17:44:58.434Z,74.13
2022-10-04T17:50:32.451Z,74.61
2022-10-04T17:55:47.687Z,75.72
2022-10-04T18:01:21.448Z,76.21
2022-10-04T18:06:39.714Z,76.34
2022-10-04T18:11:47.337Z,77.00
2022-10-04T18:16:54.823Z,77.33
2022-10-04T18:22:09.503Z,77.70
2022-10-04T18:27:18.671Z,77.48
2022-10-04T18:32:26.331Z,77.57
2022-10-04T18:37:41.521Z,77.81
2022-10-04T18:42:52.945Z,77.96
2022-10-04T18:47:56.537Z,78.20
2022-10-04T18:53:15.205Z,79.82
2022-10-04T18:59:00.492Z,79.72
2022-10-04T19:04:14.735Z,80.04
2022-10-04T19:09:44.998Z,80.05
2022-10-04T19:14:53.781Z,80.38
2022-10-04T19:20:20.305Z,80.51
2022-10-04T19:26:29.834Z,80.43
2022-10-04T19:31:38.998Z,80.50
2022-10-04T19:37:10.791Z,81.82
2022-10-04T19:42:19.969Z,81.33
2022-10-04T19:47:26.603Z,81.26
2022-10-04T19:52:39.038Z,81.81
2022-10-04T19:57:42.238Z,81.63
2022-10-04T20:02:48.502Z,82.30
2022-10-04T20:08:06.301Z,82.69
2022-10-04T20:13:12.251Z,82.49
2022-10-04T20:18:32.764Z,82.75
2022-10-04T20:23:37.825Z,82.68
2022-10-04T20:28:42.598Z,82.44
2022-10-04T20:33:48.706Z,82.71
2022-10-04T20:39:01.853Z,83.13
2022-10-04T20:44:06.683Z,82.96
2022-10-04T20:49:17.248Z,83.14
2022-10-04T20:54:20.875Z,83.01
2022-10-04T20:59:24.097Z,82.61
2022-10-04T21:04:50.099Z,82.23
2022-10-04T21:09:56.511Z,81.38
2022-10-04T21:15:16.885Z,81.85
2022-10-04T21:20:41.744Z,82.14
2022-10-04T21:25:43.415Z,81.97
2022-10-04T21:30:45.404Z,82.54
2022-10-04T21:35:50.980Z,83.00
2022-10-04T21:40:52.769Z,83.10
2022-10-04T21:45:55.058Z,82.81
2022-10-04T21:50:56.757Z,83.46
2022-10-04T21:55:58.367Z,82.95
2022-10-04T22:01:00.315Z,82.74
2022-10-04T22:06:02.039Z,83.11
2022-10-04T22:11:03.960Z,82.91
2022-10-04T22:16:06.400Z,83.15
2022-10-04T22:21:08.246Z,83.19
2022-10-04T22:26:16.319Z,83.56
2022-10-04T22:31:20.863Z,83.48
2022-10-04T22:36:39.293Z,84.45
2022-10-04T22:41:58.462Z,82.98
2022-10-04T22:47:02.353Z,83.65
2022-10-04T22:52:13.161Z,85.31
2022-10-04T22:57:17.422Z,84.68
2022-10-04T23:02:29.712Z,84.72
2022-10-04T23:07:36.032Z,84.11
2022-10-04T23:12:40.879Z,84.02
2022-10-04T23:17:43.166Z,84.00
2022-10-04T23:22:50.518Z,84.48
2022-10-04T23:27:52.518Z,84.63
2022-10-04T23:32:58.069Z,84.41
2022-10-04T23:38:03.739Z,84.90
2022-10-04T23:43:05.894Z,84.63
2022-10-04T23:48:11.257Z,84.79
2022-10-04T23:53:23.098Z,84.77
2022-10-04T23:58:32.492Z,84.60
